Macau International Airport
VMMC : now visible

Airfield :











YOU CAN JOIN US ON...

 
LOGIN :

Register | Disclaimer

   EN    FR    IT 

 









Legend :    VFR   Marginal VFR   IFR   Intensive IFR   Very Intensive IFR
Visi :
Ceiling :
>= 8 km
>= 3000ft
5 to 8 km
1000 to 3000 ft
1500m to 5 km
500 to 1000 ft
800 to 1500m
200 to 500 ft
< 800m
< 200 ft
Symbols :   Thunderstorms  Fog  Heavy snow  Heavy precipitations  Wind > 20 kt






- Airport Elevation : 20 ft
- IATA code : MFM


VMMC - Macau International

CURRENT METAR :
  • 190630Z 18008KT 9999 FEW013 SCT025 31/28 Q1004 NOSIG

EXPIRED METARs :
  • 190600Z 18010KT 9999 FEW015 SCT025 31/28 Q1005 NOSIG
  • 190530Z 19009KT 9999 FEW015 SCT025 31/28 Q1005 NOSIG
  • 190500Z 18010KT 9999 FEW012 SCT025 31/28 Q1005 NOSIG
  • 190430Z 19009KT 9999 FEW012 SCT025 31/28 Q1006 NOSIG
  • 190400Z 19008KT 9999 FEW012 SCT030 31/28 Q1006 NOSIG
  • 190330Z 19010KT 9999 FEW012 SCT030 31/28 Q1006 NOSIG
  • 190300Z 19009KT 9999 FEW012 SCT030 31/28 Q1006 NOSIG
  • 190230Z 20009KT 9999 FEW012 SCT030 31/28 Q1007 NOSIG
  • 190200Z 19008KT 9999 FEW010 31/28 Q1007 NOSIG

TAF TAF VMMC
Valid from the 19 at 06:00 until the 20 at 12:00 UTC


190500Z 1906/2012 19008KT 9999 FEW012 SCT030
ZGZU FIR / Asia



MET'MAP, your aeronautical weather chart ! - Copyright ORBIFLY December 2007 - Disclaimer

ORBIFLY MET'MAP TEAM :

Programming & Development : Alexandra Zaïnal
Original concept : Baudouin d'Aumeries
Technical & hardware support : Manuel Goepfert
Assistance : Marc-Olivier Méhu




SOURCES & CREDITS :

   NOAA       Earth
Advisory